sensor_id;sensor_type;location;lat;lon;timestamp;P1;durP1;ratioP1;P2;durP2;ratioP2
63005;SDS011;53704;52.532;6.426;2023-02-12T00:01:29;31.00;;;19.40;;
63005;SDS011;53704;52.532;6.426;2023-02-12T00:03:55;39.25;;;22.10;;
63005;SDS011;53704;52.532;6.426;2023-02-12T00:06:21;31.60;;;20.75;;
63005;SDS011;53704;52.532;6.426;2023-02-12T00:08:51;39.25;;;23.88;;
63005;SDS011;53704;52.532;6.426;2023-02-12T00:11:18;34.97;;;21.55;;
63005;SDS011;53704;52.532;6.426;2023-02-12T00:13:45;34.03;;;21.33;;
63005;SDS011;53704;52.532;6.426;2023-02-12T00:16:12;35.03;;;21.42;;
63005;SDS011;53704;52.532;6.426;2023-02-12T00:18:39;39.25;;;21.95;;
63005;SDS011;53704;52.532;6.426;2023-02-12T00:21:05;43.85;;;22.52;;
63005;SDS011;53704;52.532;6.426;2023-02-12T00:23:34;44.33;;;22.08;;
63005;SDS011;53704;52.532;6.426;2023-02-12T00:26:03;40.00;;;23.42;;
63005;SDS011;53704;52.532;6.426;2023-02-12T00:28:30;41.22;;;23.02;;
63005;SDS011;53704;52.532;6.426;2023-02-12T00:30:56;41.15;;;22.90;;
63005;SDS011;53704;52.532;6.426;2023-02-12T00:33:21;37.53;;;22.65;;
63005;SDS011;53704;52.532;6.426;2023-02-12T00:35:56;48.10;;;25.30;;
63005;SDS011;53704;52.532;6.426;2023-02-12T00:38:22;46.28;;;24.52;;
63005;SDS011;53704;52.532;6.426;2023-02-12T00:40:47;44.90;;;24.70;;
63005;SDS011;53704;52.532;6.426;2023-02-12T00:43:13;43.97;;;23.92;;
63005;SDS011;53704;52.532;6.426;2023-02-12T00:45:38;44.97;;;24.08;;
63005;SDS011;53704;52.532;6.426;2023-02-12T00:48:04;42.38;;;24.02;;
63005;SDS011;53704;52.532;6.426;2023-02-12T00:50:29;43.17;;;23.92;;
63005;SDS011;53704;52.532;6.426;2023-02-12T00:52:55;37.47;;;23.40;;
63005;SDS011;53704;52.532;6.426;2023-02-12T00:55:21;34.40;;;23.92;;
63005;SDS011;53704;52.532;6.426;2023-02-12T00:57:46;47.80;;;25.10;;
63005;SDS011;53704;52.532;6.426;2023-02-12T01:00:12;39.85;;;24.70;;
63005;SDS011;53704;52.532;6.426;2023-02-12T01:02:38;49.53;;;25.20;;
63005;SDS011;53704;52.532;6.426;2023-02-12T01:05:03;41.05;;;24.08;;
63005;SDS011;53704;52.532;6.426;2023-02-12T01:07:29;58.30;;;25.65;;
63005;SDS011;53704;52.532;6.426;2023-02-12T01:09:54;48.17;;;25.75;;
63005;SDS011;53704;52.532;6.426;2023-02-12T01:12:20;48.65;;;25.08;;
63005;SDS011;53704;52.532;6.426;2023-02-12T01:14:45;44.63;;;23.92;;
63005;SDS011;53704;52.532;6.426;2023-02-12T01:17:11;39.53;;;22.80;;
63005;SDS011;53704;52.532;6.426;2023-02-12T01:19:36;35.50;;;22.00;;
63005;SDS011;53704;52.532;6.426;2023-02-12T01:22:01;47.53;;;24.90;;
63005;SDS011;53704;52.532;6.426;2023-02-12T01:24:27;37.47;;;23.13;;
63005;SDS011;53704;52.532;6.426;2023-02-12T01:26:52;40.15;;;23.90;;
63005;SDS011;53704;52.532;6.426;2023-02-12T01:29:18;51.88;;;25.15;;
63005;SDS011;53704;52.532;6.426;2023-02-12T01:31:43;41.45;;;24.13;;
63005;SDS011;53704;52.532;6.426;2023-02-12T01:34:09;40.33;;;24.83;;
63005;SDS011;53704;52.532;6.426;2023-02-12T01:36:36;40.78;;;22.98;;
63005;SDS011;53704;52.532;6.426;2023-02-12T01:39:03;45.25;;;25.20;;
63005;SDS011;53704;52.532;6.426;2023-02-12T01:41:41;47.38;;;25.98;;
63005;SDS011;53704;52.532;6.426;2023-02-12T01:46:45;43.17;;;24.23;;
63005;SDS011;53704;52.532;6.426;2023-02-12T01:49:23;41.88;;;23.73;;
63005;SDS011;53704;52.532;6.426;2023-02-12T01:52:14;41.20;;;23.25;;
63005;SDS011;53704;52.532;6.426;2023-02-12T01:54:44;46.70;;;24.67;;
63005;SDS011;53704;52.532;6.426;2023-02-12T01:57:11;45.83;;;24.90;;
63005;SDS011;53704;52.532;6.426;2023-02-12T01:59:38;40.10;;;23.83;;
63005;SDS011;53704;52.532;6.426;2023-02-12T02:02:06;41.13;;;25.25;;
63005;SDS011;53704;52.532;6.426;2023-02-12T02:04:32;38.97;;;23.15;;
63005;SDS011;53704;52.532;6.426;2023-02-12T02:07:04;42.58;;;24.60;;
63005;SDS011;53704;52.532;6.426;2023-02-12T02:09:33;51.75;;;24.67;;
63005;SDS011;53704;52.532;6.426;2023-02-12T02:12:00;40.70;;;23.52;;
63005;SDS011;53704;52.532;6.426;2023-02-12T02:14:44;45.42;;;24.60;;
63005;SDS011;53704;52.532;6.426;2023-02-12T02:22:37;50.60;;;24.00;;
63005;SDS011;53704;52.532;6.426;2023-02-12T02:36:33;45.00;;;23.50;;
63005;SDS011;53704;52.532;6.426;2023-02-12T02:41:54;46.53;;;25.92;;
63005;SDS011;53704;52.532;6.426;2023-02-12T02:44:26;35.53;;;24.15;;
63005;SDS011;53704;52.532;6.426;2023-02-12T02:46:56;42.58;;;25.38;;
63005;SDS011;53704;52.532;6.426;2023-02-12T02:52:19;38.20;;;23.83;;
63005;SDS011;53704;52.532;6.426;2023-02-12T02:54:52;45.28;;;24.08;;
63005;SDS011;53704;52.532;6.426;2023-02-12T02:57:25;46.70;;;24.75;;
63005;SDS011;53704;52.532;6.426;2023-02-12T03:00:00;41.08;;;25.45;;
63005;SDS011;53704;52.532;6.426;2023-02-12T03:02:32;40.92;;;25.05;;
63005;SDS011;53704;52.532;6.426;2023-02-12T03:05:03;39.28;;;24.05;;
63005;SDS011;53704;52.532;6.426;2023-02-12T03:07:35;47.33;;;23.83;;
63005;SDS011;53704;52.532;6.426;2023-02-12T03:10:12;44.88;;;25.75;;
63005;SDS011;53704;52.532;6.426;2023-02-12T03:15:16;46.53;;;25.90;;
63005;SDS011;53704;52.532;6.426;2023-02-12T03:17:43;42.08;;;24.67;;
63005;SDS011;53704;52.532;6.426;2023-02-12T03:20:17;46.03;;;25.52;;
63005;SDS011;53704;52.532;6.426;2023-02-12T03:25:57;43.13;;;25.67;;
63005;SDS011;53704;52.532;6.426;2023-02-12T03:28:44;52.55;;;26.00;;
63005;SDS011;53704;52.532;6.426;2023-02-12T03:39:19;47.60;;;26.27;;
63005;SDS011;53704;52.532;6.426;2023-02-12T03:41:49;42.63;;;24.23;;
63005;SDS011;53704;52.532;6.426;2023-02-12T03:52:40;33.08;;;23.60;;
63005;SDS011;53704;52.532;6.426;2023-02-12T03:55:07;47.83;;;26.65;;
63005;SDS011;53704;52.532;6.426;2023-02-12T03:57:36;48.28;;;25.65;;
63005;SDS011;53704;52.532;6.426;2023-02-12T04:00:10;42.58;;;25.80;;
63005;SDS011;53704;52.532;6.426;2023-02-12T04:02:40;48.60;;;27.13;;
63005;SDS011;53704;52.532;6.426;2023-02-12T04:05:07;45.35;;;26.38;;
63005;SDS011;53704;52.532;6.426;2023-02-12T04:07:33;45.70;;;25.70;;
63005;SDS011;53704;52.532;6.426;2023-02-12T04:10:01;43.97;;;25.60;;
63005;SDS011;53704;52.532;6.426;2023-02-12T04:15:29;52.83;;;25.00;;
63005;SDS011;53704;52.532;6.426;2023-02-12T04:18:31;42.95;;;26.85;;
63005;SDS011;53704;52.532;6.426;2023-02-12T04:26:22;53.10;;;28.00;;
63005;SDS011;53704;52.532;6.426;2023-02-12T04:29:08;48.27;;;28.33;;
63005;SDS011;53704;52.532;6.426;2023-02-12T04:31:48;38.70;;;26.75;;
63005;SDS011;53704;52.532;6.426;2023-02-12T04:34:17;41.95;;;27.73;;
63005;SDS011;53704;52.532;6.426;2023-02-12T04:36:45;50.40;;;28.15;;
63005;SDS011;53704;52.532;6.426;2023-02-12T04:39:19;55.20;;;29.80;;
63005;SDS011;53704;52.532;6.426;2023-02-12T04:41:48;47.83;;;28.73;;
63005;SDS011;53704;52.532;6.426;2023-02-12T04:44:14;56.17;;;30.27;;
63005;SDS011;53704;52.532;6.426;2023-02-12T04:46:41;53.92;;;30.75;;
63005;SDS011;53704;52.532;6.426;2023-02-12T04:49:08;50.95;;;28.92;;
63005;SDS011;53704;52.532;6.426;2023-02-12T04:51:38;46.22;;;29.00;;
63005;SDS011;53704;52.532;6.426;2023-02-12T04:54:03;57.92;;;31.83;;
63005;SDS011;53704;52.532;6.426;2023-02-12T04:56:29;47.65;;;28.15;;
63005;SDS011;53704;52.532;6.426;2023-02-12T04:58:54;49.70;;;28.73;;
63005;SDS011;53704;52.532;6.426;2023-02-12T05:01:21;55.83;;;29.33;;
63005;SDS011;53704;52.532;6.426;2023-02-12T05:03:47;50.33;;;30.95;;
63005;SDS011;53704;52.532;6.426;2023-02-12T05:06:13;56.03;;;30.13;;
63005;SDS011;53704;52.532;6.426;2023-02-12T05:08:38;45.20;;;27.83;;
63005;SDS011;53704;52.532;6.426;2023-02-12T05:11:05;49.60;;;29.00;;
63005;SDS011;53704;52.532;6.426;2023-02-12T05:13:31;54.30;;;30.85;;
63005;SDS011;53704;52.532;6.426;2023-02-12T05:15:57;52.88;;;30.67;;
63005;SDS011;53704;52.532;6.426;2023-02-12T05:18:22;62.03;;;32.20;;
63005;SDS011;53704;52.532;6.426;2023-02-12T05:20:54;47.65;;;29.67;;
63005;SDS011;53704;52.532;6.426;2023-02-12T05:23:21;55.97;;;30.73;;
63005;SDS011;53704;52.532;6.426;2023-02-12T05:25:47;51.75;;;29.65;;
63005;SDS011;53704;52.532;6.426;2023-02-12T05:28:12;53.80;;;30.02;;
63005;SDS011;53704;52.532;6.426;2023-02-12T05:30:37;53.25;;;29.17;;
63005;SDS011;53704;52.532;6.426;2023-02-12T05:33:03;59.70;;;31.63;;
63005;SDS011;53704;52.532;6.426;2023-02-12T05:35:28;60.33;;;30.70;;
63005;SDS011;53704;52.532;6.426;2023-02-12T05:37:53;55.03;;;30.05;;
63005;SDS011;53704;52.532;6.426;2023-02-12T05:40:19;46.92;;;28.40;;
63005;SDS011;53704;52.532;6.426;2023-02-12T05:42:44;65.32;;;31.92;;
63005;SDS011;53704;52.532;6.426;2023-02-12T05:45:10;63.65;;;31.65;;
63005;SDS011;53704;52.532;6.426;2023-02-12T05:47:35;57.50;;;30.77;;
63005;SDS011;53704;52.532;6.426;2023-02-12T05:50:01;56.15;;;31.60;;
63005;SDS011;53704;52.532;6.426;2023-02-12T05:52:26;49.97;;;29.60;;
63005;SDS011;53704;52.532;6.426;2023-02-12T05:54:52;62.42;;;31.60;;
63005;SDS011;53704;52.532;6.426;2023-02-12T05:57:17;56.35;;;30.95;;
63005;SDS011;53704;52.532;6.426;2023-02-12T05:59:43;56.97;;;31.48;;
63005;SDS011;53704;52.532;6.426;2023-02-12T06:02:08;57.67;;;29.52;;
63005;SDS011;53704;52.532;6.426;2023-02-12T06:04:33;55.92;;;28.90;;
63005;SDS011;53704;52.532;6.426;2023-02-12T06:06:59;51.80;;;30.83;;
63005;SDS011;53704;52.532;6.426;2023-02-12T06:09:25;59.50;;;31.98;;
63005;SDS011;53704;52.532;6.426;2023-02-12T06:11:50;54.13;;;29.80;;
63005;SDS011;53704;52.532;6.426;2023-02-12T06:14:16;54.42;;;31.17;;
63005;SDS011;53704;52.532;6.426;2023-02-12T06:16:44;48.83;;;29.27;;
63005;SDS011;53704;52.532;6.426;2023-02-12T06:19:11;55.38;;;31.55;;
63005;SDS011;53704;52.532;6.426;2023-02-12T06:21:37;57.50;;;32.08;;
63005;SDS011;53704;52.532;6.426;2023-02-12T06:24:02;52.85;;;31.45;;
63005;SDS011;53704;52.532;6.426;2023-02-12T06:26:28;65.63;;;33.05;;
63005;SDS011;53704;52.532;6.426;2023-02-12T06:28:54;56.63;;;29.92;;
63005;SDS011;53704;52.532;6.426;2023-02-12T06:31:21;58.58;;;30.92;;
63005;SDS011;53704;52.532;6.426;2023-02-12T06:33:50;54.20;;;33.45;;
63005;SDS011;53704;52.532;6.426;2023-02-12T06:36:16;56.83;;;31.40;;
63005;SDS011;53704;52.532;6.426;2023-02-12T06:38:42;58.88;;;32.08;;
63005;SDS011;53704;52.532;6.426;2023-02-12T06:41:08;57.25;;;30.75;;
63005;SDS011;53704;52.532;6.426;2023-02-12T06:43:33;64.00;;;31.10;;
63005;SDS011;53704;52.532;6.426;2023-02-12T06:45:59;60.50;;;31.20;;
63005;SDS011;53704;52.532;6.426;2023-02-12T06:48:26;47.33;;;28.15;;
63005;SDS011;53704;52.532;6.426;2023-02-12T06:50:52;60.65;;;30.88;;
63005;SDS011;53704;52.532;6.426;2023-02-12T06:53:17;62.97;;;32.90;;
63005;SDS011;53704;52.532;6.426;2023-02-12T06:55:43;57.15;;;29.55;;
63005;SDS011;53704;52.532;6.426;2023-02-12T06:58:08;52.63;;;30.80;;
63005;SDS011;53704;52.532;6.426;2023-02-12T07:00:33;55.72;;;30.80;;
63005;SDS011;53704;52.532;6.426;2023-02-12T07:02:59;54.13;;;29.23;;
63005;SDS011;53704;52.532;6.426;2023-02-12T07:05:24;58.25;;;30.73;;
63005;SDS011;53704;52.532;6.426;2023-02-12T07:07:50;59.90;;;31.13;;
63005;SDS011;53704;52.532;6.426;2023-02-12T07:10:16;59.25;;;32.22;;
63005;SDS011;53704;52.532;6.426;2023-02-12T07:12:42;60.25;;;31.17;;
63005;SDS011;53704;52.532;6.426;2023-02-12T07:15:07;54.85;;;30.13;;
63005;SDS011;53704;52.532;6.426;2023-02-12T07:17:33;61.47;;;32.92;;
63005;SDS011;53704;52.532;6.426;2023-02-12T07:19:58;62.58;;;32.78;;
63005;SDS011;53704;52.532;6.426;2023-02-12T07:22:24;58.47;;;30.23;;
63005;SDS011;53704;52.532;6.426;2023-02-12T07:24:49;57.78;;;31.58;;
63005;SDS011;53704;52.532;6.426;2023-02-12T07:27:15;62.55;;;32.30;;
63005;SDS011;53704;52.532;6.426;2023-02-12T07:29:41;58.08;;;31.33;;
63005;SDS011;53704;52.532;6.426;2023-02-12T07:32:06;62.35;;;31.63;;
63005;SDS011;53704;52.532;6.426;2023-02-12T07:34:32;56.00;;;31.33;;
63005;SDS011;53704;52.532;6.426;2023-02-12T07:36:58;57.80;;;31.67;;
63005;SDS011;53704;52.532;6.426;2023-02-12T07:39:23;56.28;;;31.67;;
63005;SDS011;53704;52.532;6.426;2023-02-12T07:41:48;65.15;;;32.72;;
63005;SDS011;53704;52.532;6.426;2023-02-12T07:44:14;61.20;;;31.42;;
63005;SDS011;53704;52.532;6.426;2023-02-12T07:46:43;72.32;;;35.33;;
63005;SDS011;53704;52.532;6.426;2023-02-12T07:49:17;60.70;;;32.20;;
63005;SDS011;53704;52.532;6.426;2023-02-12T07:51:45;61.15;;;32.70;;
63005;SDS011;53704;52.532;6.426;2023-02-12T07:54:11;63.05;;;30.67;;
63005;SDS011;53704;52.532;6.426;2023-02-12T07:56:37;64.45;;;31.95;;
63005;SDS011;53704;52.532;6.426;2023-02-12T07:59:04;61.20;;;31.85;;
63005;SDS011;53704;52.532;6.426;2023-02-12T08:01:33;61.75;;;32.17;;
63005;SDS011;53704;52.532;6.426;2023-02-12T08:04:01;57.55;;;31.70;;
63005;SDS011;53704;52.532;6.426;2023-02-12T08:06:30;59.30;;;32.67;;
63005;SDS011;53704;52.532;6.426;2023-02-12T08:08:57;54.92;;;30.75;;
63005;SDS011;53704;52.532;6.426;2023-02-12T08:11:25;55.67;;;31.85;;
63005;SDS011;53704;52.532;6.426;2023-02-12T08:13:52;63.80;;;32.10;;
63005;SDS011;53704;52.532;6.426;2023-02-12T08:16:21;59.28;;;31.85;;
63005;SDS011;53704;52.532;6.426;2023-02-12T08:18:49;63.47;;;32.00;;
63005;SDS011;53704;52.532;6.426;2023-02-12T08:21:16;60.40;;;32.25;;
63005;SDS011;53704;52.532;6.426;2023-02-12T08:23:43;60.78;;;32.13;;
63005;SDS011;53704;52.532;6.426;2023-02-12T08:26:22;58.97;;;32.08;;
63005;SDS011;53704;52.532;6.426;2023-02-12T08:28:57;60.40;;;32.47;;
63005;SDS011;53704;52.532;6.426;2023-02-12T08:31:31;55.90;;;31.05;;
63005;SDS011;53704;52.532;6.426;2023-02-12T08:34:14;57.03;;;29.90;;
63005;SDS011;53704;52.532;6.426;2023-02-12T08:36:46;52.40;;;30.48;;
63005;SDS011;53704;52.532;6.426;2023-02-12T08:39:13;56.63;;;31.52;;
63005;SDS011;53704;52.532;6.426;2023-02-12T08:41:39;61.17;;;31.25;;
63005;SDS011;53704;52.532;6.426;2023-02-12T08:44:06;55.15;;;31.95;;
63005;SDS011;53704;52.532;6.426;2023-02-12T08:46:33;62.70;;;31.75;;
63005;SDS011;53704;52.532;6.426;2023-02-12T08:49:01;71.53;;;31.73;;
63005;SDS011;53704;52.532;6.426;2023-02-12T08:51:30;59.33;;;31.23;;
63005;SDS011;53704;52.532;6.426;2023-02-12T08:53:59;56.65;;;30.42;;
63005;SDS011;53704;52.532;6.426;2023-02-12T08:56:26;57.78;;;30.33;;
63005;SDS011;53704;52.532;6.426;2023-02-12T08:58:53;63.45;;;28.88;;
63005;SDS011;53704;52.532;6.426;2023-02-12T09:01:21;64.65;;;31.52;;
63005;SDS011;53704;52.532;6.426;2023-02-12T09:03:48;57.53;;;30.15;;
63005;SDS011;53704;52.532;6.426;2023-02-12T09:06:14;67.22;;;33.25;;
63005;SDS011;53704;52.532;6.426;2023-02-12T09:08:41;59.22;;;30.73;;
63005;SDS011;53704;52.532;6.426;2023-02-12T09:11:08;52.35;;;29.10;;
63005;SDS011;53704;52.532;6.426;2023-02-12T09:13:35;51.58;;;28.48;;
63005;SDS011;53704;52.532;6.426;2023-02-12T09:16:01;55.90;;;31.15;;
63005;SDS011;53704;52.532;6.426;2023-02-12T09:18:28;55.05;;;30.70;;
63005;SDS011;53704;52.532;6.426;2023-02-12T09:20:54;56.15;;;30.80;;
63005;SDS011;53704;52.532;6.426;2023-02-12T09:23:24;52.88;;;27.65;;
63005;SDS011;53704;52.532;6.426;2023-02-12T09:25:49;58.85;;;29.73;;
63005;SDS011;53704;52.532;6.426;2023-02-12T09:28:15;59.67;;;30.85;;
63005;SDS011;53704;52.532;6.426;2023-02-12T09:30:40;59.05;;;29.88;;
63005;SDS011;53704;52.532;6.426;2023-02-12T09:33:06;58.25;;;28.95;;
63005;SDS011;53704;52.532;6.426;2023-02-12T09:35:34;61.22;;;30.23;;
63005;SDS011;53704;52.532;6.426;2023-02-12T09:38:00;59.15;;;29.50;;
63005;SDS011;53704;52.532;6.426;2023-02-12T09:45:57;56.80;;;30.83;;
63005;SDS011;53704;52.532;6.426;2023-02-12T09:48:34;50.33;;;29.23;;
63005;SDS011;53704;52.532;6.426;2023-02-12T09:51:23;53.10;;;28.67;;
63005;SDS011;53704;52.532;6.426;2023-02-12T09:53:52;57.05;;;29.13;;
63005;SDS011;53704;52.532;6.426;2023-02-12T09:56:49;53.63;;;28.02;;
63005;SDS011;53704;52.532;6.426;2023-02-12T09:59:40;55.85;;;30.52;;
63005;SDS011;53704;52.532;6.426;2023-02-12T10:02:16;54.30;;;29.45;;
63005;SDS011;53704;52.532;6.426;2023-02-12T10:04:44;49.05;;;27.45;;
63005;SDS011;53704;52.532;6.426;2023-02-12T10:07:27;55.63;;;29.52;;
63005;SDS011;53704;52.532;6.426;2023-02-12T10:10:13;55.50;;;29.73;;
63005;SDS011;53704;52.532;6.426;2023-02-12T10:12:46;51.25;;;29.40;;
63005;SDS011;53704;52.532;6.426;2023-02-12T10:15:26;59.88;;;29.20;;
63005;SDS011;53704;52.532;6.426;2023-02-12T10:27:04;55.38;;;28.10;;
63005;SDS011;53704;52.532;6.426;2023-02-12T10:29:39;62.53;;;29.08;;
63005;SDS011;53704;52.532;6.426;2023-02-12T10:34:40;45.30;;;27.40;;
63005;SDS011;53704;52.532;6.426;2023-02-12T10:39:40;55.55;;;28.70;;
63005;SDS011;53704;52.532;6.426;2023-02-12T10:42:17;60.78;;;28.40;;
63005;SDS011;53704;52.532;6.426;2023-02-12T10:44:49;48.05;;;28.02;;
63005;SDS011;53704;52.532;6.426;2023-02-12T10:47:21;53.10;;;27.73;;
63005;SDS011;53704;52.532;6.426;2023-02-12T10:49:50;53.80;;;27.90;;
63005;SDS011;53704;52.532;6.426;2023-02-12T10:52:28;55.42;;;26.92;;
63005;SDS011;53704;52.532;6.426;2023-02-12T10:57:54;49.10;;;26.52;;
63005;SDS011;53704;52.532;6.426;2023-02-12T11:00:31;48.28;;;26.33;;
63005;SDS011;53704;52.532;6.426;2023-02-12T11:05:39;57.10;;;28.48;;
63005;SDS011;53704;52.532;6.426;2023-02-12T11:08:06;49.53;;;26.00;;
63005;SDS011;53704;52.532;6.426;2023-02-12T11:10:40;50.83;;;26.42;;
63005;SDS011;53704;52.532;6.426;2023-02-12T11:13:20;50.60;;;26.35;;
63005;SDS011;53704;52.532;6.426;2023-02-12T11:15:49;48.15;;;25.52;;
63005;SDS011;53704;52.532;6.426;2023-02-12T11:18:25;42.28;;;23.95;;
63005;SDS011;53704;52.532;6.426;2023-02-12T11:21:00;47.10;;;23.80;;
63005;SDS011;53704;52.532;6.426;2023-02-12T11:23:34;53.17;;;27.30;;
63005;SDS011;53704;52.532;6.426;2023-02-12T11:28:51;36.80;;;23.50;;
63005;SDS011;53704;52.532;6.426;2023-02-12T11:31:21;43.30;;;22.92;;
63005;SDS011;53704;52.532;6.426;2023-02-12T11:36:29;42.67;;;22.45;;
63005;SDS011;53704;52.532;6.426;2023-02-12T11:38:59;43.97;;;23.17;;
63005;SDS011;53704;52.532;6.426;2023-02-12T11:41:35;50.60;;;22.98;;
63005;SDS011;53704;52.532;6.426;2023-02-12T11:44:09;35.92;;;22.42;;
63005;SDS011;53704;52.532;6.426;2023-02-12T11:46:36;43.67;;;22.30;;
63005;SDS011;53704;52.532;6.426;2023-02-12T11:49:04;38.28;;;21.88;;
63005;SDS011;53704;52.532;6.426;2023-02-12T11:51:33;38.00;;;20.38;;
63005;SDS011;53704;52.532;6.426;2023-02-12T11:54:02;38.75;;;20.27;;
63005;SDS011;53704;52.532;6.426;2023-02-12T11:56:43;34.00;;;20.92;;
63005;SDS011;53704;52.532;6.426;2023-02-12T11:59:33;34.92;;;20.70;;
63005;SDS011;53704;52.532;6.426;2023-02-12T12:02:03;37.67;;;20.25;;
63005;SDS011;53704;52.532;6.426;2023-02-12T12:04:41;31.65;;;18.52;;
63005;SDS011;53704;52.532;6.426;2023-02-12T12:07:24;36.58;;;19.70;;
63005;SDS011;53704;52.532;6.426;2023-02-12T12:09:58;32.53;;;18.75;;
63005;SDS011;53704;52.532;6.426;2023-02-12T12:12:38;35.40;;;19.55;;
63005;SDS011;53704;52.532;6.426;2023-02-12T12:18:07;27.58;;;17.10;;
63005;SDS011;53704;52.532;6.426;2023-02-12T12:23:51;32.60;;;17.40;;
63005;SDS011;53704;52.532;6.426;2023-02-12T12:26:25;30.02;;;16.75;;
63005;SDS011;53704;52.532;6.426;2023-02-12T12:29:02;38.17;;;20.23;;
63005;SDS011;53704;52.532;6.426;2023-02-12T12:31:47;28.63;;;14.65;;
63005;SDS011;53704;52.532;6.426;2023-02-12T12:34:18;32.88;;;16.33;;
63005;SDS011;53704;52.532;6.426;2023-02-12T13:04:32;18.80;;;11.98;;
63005;SDS011;53704;52.532;6.426;2023-02-12T13:20:59;17.50;;;10.55;;
63005;SDS011;53704;52.532;6.426;2023-02-12T13:26:13;12.63;;;9.20;;
63005;SDS011;53704;52.532;6.426;2023-02-12T13:28:51;21.10;;;11.00;;
63005;SDS011;53704;52.532;6.426;2023-02-12T13:31:22;17.60;;;10.60;;
63005;SDS011;53704;52.532;6.426;2023-02-12T13:33:53;14.38;;;9.75;;
63005;SDS011;53704;52.532;6.426;2023-02-12T13:36:22;17.05;;;9.50;;
63005;SDS011;53704;52.532;6.426;2023-02-12T13:38:58;16.65;;;10.32;;
63005;SDS011;53704;52.532;6.426;2023-02-12T13:41:29;14.32;;;10.05;;
63005;SDS011;53704;52.532;6.426;2023-02-12T13:52:11;12.77;;;9.55;;
63005;SDS011;53704;52.532;6.426;2023-02-12T13:55:09;5.90;;;4.38;;
63005;SDS011;53704;52.532;6.426;2023-02-12T13:57:46;8.10;;;3.83;;
63005;SDS011;53704;52.532;6.426;2023-02-12T14:03:15;3.20;;;3.00;;
63005;SDS011;53704;52.532;6.426;2023-02-12T14:05:40;3.58;;;3.38;;
63005;SDS011;53704;52.532;6.426;2023-02-12T14:08:06;3.63;;;3.35;;
63005;SDS011;53704;52.532;6.426;2023-02-12T14:11:24;5.97;;;5.30;;
63005;SDS011;53704;52.532;6.426;2023-02-12T14:13:49;6.32;;;5.75;;
63005;SDS011;53704;52.532;6.426;2023-02-12T14:19:34;8.27;;;6.82;;
63005;SDS011;53704;52.532;6.426;2023-02-12T14:22:56;8.23;;;6.22;;
63005;SDS011;53704;52.532;6.426;2023-02-12T14:40:50;15.40;;;8.15;;
63005;SDS011;53704;52.532;6.426;2023-02-12T14:45:54;10.85;;;8.25;;
63005;SDS011;53704;52.532;6.426;2023-02-12T14:48:37;11.27;;;7.65;;
63005;SDS011;53704;52.532;6.426;2023-02-12T14:51:13;11.25;;;7.75;;
63005;SDS011;53704;52.532;6.426;2023-02-12T14:54:00;15.30;;;8.80;;
63005;SDS011;53704;52.532;6.426;2023-02-12T14:56:28;38.95;;;22.85;;
63005;SDS011;53704;52.532;6.426;2023-02-12T15:01:32;11.98;;;9.15;;
63005;SDS011;53704;52.532;6.426;2023-02-12T15:04:01;14.90;;;9.95;;
63005;SDS011;53704;52.532;6.426;2023-02-12T15:06:48;17.13;;;10.40;;
63005;SDS011;53704;52.532;6.426;2023-02-12T15:09:20;15.82;;;9.68;;
63005;SDS011;53704;52.532;6.426;2023-02-12T15:15:06;33.13;;;17.35;;
63005;SDS011;53704;52.532;6.426;2023-02-12T15:17:36;22.65;;;15.73;;
63005;SDS011;53704;52.532;6.426;2023-02-12T15:20:27;19.33;;;13.27;;
63005;SDS011;53704;52.532;6.426;2023-02-12T15:22:59;13.95;;;11.60;;
63005;SDS011;53704;52.532;6.426;2023-02-12T15:25:29;11.73;;;10.43;;
63005;SDS011;53704;52.532;6.426;2023-02-12T15:30:41;12.80;;;11.13;;
63005;SDS011;53704;52.532;6.426;2023-02-12T15:33:07;12.73;;;11.30;;
63005;SDS011;53704;52.532;6.426;2023-02-12T15:35:34;11.65;;;10.52;;
63005;SDS011;53704;52.532;6.426;2023-02-12T15:38:02;11.50;;;10.13;;
63005;SDS011;53704;52.532;6.426;2023-02-12T15:40:31;11.88;;;10.77;;
63005;SDS011;53704;52.532;6.426;2023-02-12T15:45:28;13.85;;;12.43;;
63005;SDS011;53704;52.532;6.426;2023-02-12T15:48:14;14.60;;;13.07;;
63005;SDS011;53704;52.532;6.426;2023-02-12T15:53:39;19.88;;;14.45;;
63005;SDS011;53704;52.532;6.426;2023-02-12T15:56:09;22.02;;;14.30;;
63005;SDS011;53704;52.532;6.426;2023-02-12T15:58:48;18.25;;;13.80;;
63005;SDS011;53704;52.532;6.426;2023-02-12T16:01:19;17.38;;;13.18;;
63005;SDS011;53704;52.532;6.426;2023-02-12T16:03:51;19.65;;;14.35;;
63005;SDS011;53704;52.532;6.426;2023-02-12T16:06:18;19.75;;;14.02;;
63005;SDS011;53704;52.532;6.426;2023-02-12T16:08:56;17.52;;;13.95;;
63005;SDS011;53704;52.532;6.426;2023-02-12T16:11:26;16.27;;;14.57;;
63005;SDS011;53704;52.532;6.426;2023-02-12T16:14:03;19.05;;;14.95;;
63005;SDS011;53704;52.532;6.426;2023-02-12T16:17:15;23.70;;;15.07;;
63005;SDS011;53704;52.532;6.426;2023-02-12T16:19:24;18.25;;;15.00;;
63005;SDS011;53704;52.532;6.426;2023-02-12T16:21:55;18.23;;;13.80;;
63005;SDS011;53704;52.532;6.426;2023-02-12T16:24:33;20.63;;;15.10;;
63005;SDS011;53704;52.532;6.426;2023-02-12T16:27:47;21.30;;;17.30;;
63005;SDS011;53704;52.532;6.426;2023-02-12T16:29:58;25.95;;;16.83;;
63005;SDS011;53704;52.532;6.426;2023-02-12T16:32:31;17.05;;;14.63;;
63005;SDS011;53704;52.532;6.426;2023-02-12T16:50:31;15.07;;;13.20;;
63005;SDS011;53704;52.532;6.426;2023-02-12T16:53:21;21.70;;;14.90;;
63005;SDS011;53704;52.532;6.426;2023-02-12T16:56:00;15.88;;;14.18;;
63005;SDS011;53704;52.532;6.426;2023-02-12T16:58:28;17.67;;;14.80;;
63005;SDS011;53704;52.532;6.426;2023-02-12T17:00:54;19.90;;;15.07;;
63005;SDS011;53704;52.532;6.426;2023-02-12T17:03:21;20.70;;;14.30;;
63005;SDS011;53704;52.532;6.426;2023-02-12T17:05:48;20.08;;;14.93;;
63005;SDS011;53704;52.532;6.426;2023-02-12T17:08:18;19.58;;;15.48;;
63005;SDS011;53704;52.532;6.426;2023-02-12T17:10:45;19.50;;;15.18;;
63005;SDS011;53704;52.532;6.426;2023-02-12T17:13:12;18.13;;;15.38;;
63005;SDS011;53704;52.532;6.426;2023-02-12T17:15:44;20.52;;;15.70;;
63005;SDS011;53704;52.532;6.426;2023-02-12T17:18:28;19.90;;;15.30;;
63005;SDS011;53704;52.532;6.426;2023-02-12T17:20:58;20.42;;;14.73;;
63005;SDS011;53704;52.532;6.426;2023-02-12T17:23:25;18.02;;;14.75;;
63005;SDS011;53704;52.532;6.426;2023-02-12T17:25:51;20.95;;;14.93;;
63005;SDS011;53704;52.532;6.426;2023-02-12T17:28:17;21.77;;;15.07;;
63005;SDS011;53704;52.532;6.426;2023-02-12T17:30:42;20.90;;;16.23;;
63005;SDS011;53704;52.532;6.426;2023-02-12T17:33:08;21.67;;;14.63;;
63005;SDS011;53704;52.532;6.426;2023-02-12T17:35:37;16.77;;;14.00;;
63005;SDS011;53704;52.532;6.426;2023-02-12T17:38:04;18.08;;;14.90;;
63005;SDS011;53704;52.532;6.426;2023-02-12T17:40:30;20.55;;;15.27;;
63005;SDS011;53704;52.532;6.426;2023-02-12T17:42:55;16.52;;;14.52;;
63005;SDS011;53704;52.532;6.426;2023-02-12T17:45:22;23.48;;;16.38;;
63005;SDS011;53704;52.532;6.426;2023-02-12T17:47:47;17.67;;;14.75;;
63005;SDS011;53704;52.532;6.426;2023-02-12T17:50:14;17.05;;;14.60;;
63005;SDS011;53704;52.532;6.426;2023-02-12T17:52:49;19.95;;;16.52;;
63005;SDS011;53704;52.532;6.426;2023-02-12T17:55:14;19.42;;;15.75;;
63005;SDS011;53704;52.532;6.426;2023-02-12T17:57:41;21.98;;;15.13;;
63005;SDS011;53704;52.532;6.426;2023-02-12T18:00:08;20.55;;;15.50;;